Terminal Aerodrome Forecast
Issued by NWS Greer, SC

Home | Current Version | Previous Version | Text Only | Print | Product List | Glossary On
Versions: 1 2 3 4 5 6 7 8 9 10 11 12 13 14 15 16 17 18 19 20 21 22 23 24 25 26 27 28 29 30 31 32 33 34 35
000
FTUS42 KGSP 221700 CCA
TAFAVL
TAF COR
KAVL 221759Z 2218/2318 32009KT P6SM BKN045
     FM222200 35008KT P6SM VCTS BKN040CB
     FM230500 33004KT P6SM BKN050
     FM230900 33005KT 5SM BR SCT050
     FM231400 34007KT P6SM BKN045 PROB30 2316/2318 TSRA BKN040CB=

USA.gov is the U.S. government's official web portal to all federal, state and local government web resources and services.